Time;durP1;ratioP1;P1;durP2;ratioP2;P2;SDS_P1;SDS_P2;PMS_P1;PMS_P2;Temp;Humidity;BMP_temperature;BMP_pressure;BME280_temperature;BME280_humidity;BME280_pressure;Samples;Min_cycle;Max_cycle;Signal;HPM_P1;HPM_P2
2021/10/25 00:01:29;;;;;;;5.20;4.80;;;16.10;82.60;;;;;;4178156;28;20891;-62
2021/10/25 00:03:51;;;;;;;4.82;4.40;;;16.10;82.70;;;;;;4177891;28;20045;-63
2021/10/25 00:06:12;;;;;;;5.53;4.93;;;16.10;82.80;;;;;;4177854;28;20765;-63
2021/10/25 00:08:35;;;;;;;5.53;5.00;;;16.10;83.00;;;;;;4177668;28;20564;-62
2021/10/25 00:10:57;;;;;;;5.25;4.30;;;16.10;82.80;;;;;;4177892;28;20045;-62
2021/10/25 00:13:20;;;;;;;4.80;4.40;;;16.10;83.70;;;;;;4177449;28;20036;-63
2021/10/25 00:15:43;;;;;;;6.53;4.53;;;16.10;83.90;;;;;;4177310;28;20053;-62
2021/10/25 00:18:05;;;;;;;5.45;4.95;;;16.00;82.60;;;;;;4177698;28;20052;-62
2021/10/25 00:20:28;;;;;;;5.32;4.90;;;16.00;82.80;;;;;;4177599;28;20072;-63
2021/10/25 00:22:50;;;;;;;6.00;4.88;;;16.00;82.90;;;;;;4177627;28;20071;-62
2021/10/25 00:25:12;;;;;;;5.18;4.70;;;16.00;83.20;;;;;;4177402;28;20112;-62
2021/10/25 00:27:34;;;;;;;5.25;4.70;;;16.00;83.20;;;;;;4177444;28;20400;-63
2021/10/25 00:29:55;;;;;;;5.55;5.00;;;16.00;83.50;;;;;;4177481;28;20056;-63
2021/10/25 00:32:19;;;;;;;6.70;5.00;;;16.00;83.50;;;;;;4177487;28;20106;-62
2021/10/25 00:34:41;;;;;;;5.28;4.88;;;16.00;83.20;;;;;;4177367;28;20061;-63
2021/10/25 00:37:04;;;;;;;6.43;5.10;;;16.00;83.40;;;;;;4160944;28;20045;-64
2021/10/25 00:39:26;;;;;;;6.47;4.75;;;16.00;83.50;;;;;;4160832;28;20045;-63
2021/10/25 00:41:48;;;;;;;5.20;4.80;;;16.00;83.50;;;;;;4160924;28;20120;-63
2021/10/25 00:44:10;;;;;;;5.03;4.57;;;16.00;83.50;;;;;;4162512;28;20055;-62
2021/10/25 00:46:33;;;;;;;6.03;5.53;;;16.00;83.70;;;;;;4176552;28;20474;-62
2021/10/25 00:48:56;;;;;;;4.90;4.57;;;16.00;83.20;;;;;;4175629;28;20045;-62
2021/10/25 00:51:18;;;;;;;5.13;4.72;;;15.90;83.30;;;;;;4177334;28;20127;-62
2021/10/25 00:53:42;;;;;;;7.47;5.55;;;15.90;83.70;;;;;;4175642;28;20119;-62
2021/10/25 00:56:06;;;;;;;5.63;5.13;;;15.90;83.60;;;;;;4176508;28;20129;-62
2021/10/25 00:58:29;;;;;;;5.32;4.88;;;15.90;83.40;;;;;;4176718;28;20756;-61
2021/10/25 01:00:51;;;;;;;6.03;5.53;;;15.90;83.70;;;;;;4160635;28;20856;-62
2021/10/25 01:03:13;;;;;;;6.75;5.15;;;15.90;83.60;;;;;;4158844;28;20049;-62
2021/10/25 01:05:37;;;;;;;6.72;5.25;;;15.90;83.70;;;;;;4171759;28;20060;-60
2021/10/25 01:08:03;;;;;;;6.38;4.80;;;15.90;84.40;;;;;;4175041;28;20536;-61
2021/10/25 01:10:25;;;;;;;6.78;5.15;;;15.90;83.50;;;;;;4176362;28;20130;-62
2021/10/25 01:12:50;;;;;;;6.13;5.63;;;15.80;83.90;;;;;;4176784;28;20045;-62
2021/10/25 01:15:12;;;;;;;8.68;5.60;;;15.90;83.80;;;;;;4176884;28;20056;-62
2021/10/25 01:17:34;;;;;;;5.82;5.32;;;15.80;84.00;;;;;;4175399;28;20527;-62
2021/10/25 01:19:59;;;;;;;6.90;5.60;;;15.80;83.90;;;;;;4192941;28;20059;-62
2021/10/25 01:22:21;;;;;;;6.35;5.45;;;15.80;84.00;;;;;;4160387;28;20069;-62
2021/10/25 01:24:44;;;;;;;5.85;5.35;;;15.80;85.10;;;;;;4183545;28;20049;-62
2021/10/25 01:27:06;;;;;;;5.00;4.70;;;15.80;84.00;;;;;;4175170;28;20068;-63
2021/10/25 01:29:28;;;;;;;5.63;5.13;;;15.80;84.30;;;;;;4174808;28;20130;-62
2021/10/25 01:31:50;;;;;;;5.90;5.20;;;15.80;84.00;;;;;;4176933;28;20511;-62
2021/10/25 01:34:15;;;;;;;5.80;5.30;;;15.80;84.30;;;;;;4191258;28;20570;-62
2021/10/25 01:36:40;;;;;;;5.70;5.30;;;15.80;84.50;;;;;;4175655;28;20068;-61
2021/10/25 01:39:03;;;;;;;5.78;5.32;;;15.70;84.30;;;;;;4174310;28;21466;-62
2021/10/25 01:41:25;;;;;;;5.53;5.03;;;15.70;84.40;;;;;;4174912;28;20098;-62
2021/10/25 01:43:47;;;;;;;5.45;4.97;;;15.80;84.80;;;;;;4176100;28;20060;-61
2021/10/25 01:46:09;;;;;;;5.72;5.32;;;15.80;84.50;;;;;;4177460;28;20049;-62
2021/10/25 01:48:32;;;;;;;6.13;5.63;;;15.80;85.60;;;;;;4177973;28;20052;-61
2021/10/25 01:50:54;;;;;;;7.55;5.07;;;15.70;84.80;;;;;;4160987;28;20507;-62
2021/10/25 01:53:18;;;;;;;7.80;5.50;;;15.70;84.90;;;;;;4176066;28;20051;-62
2021/10/25 01:55:47;;;;;;;6.35;5.78;;;15.70;84.90;;;;;;4158118;28;20136;-62
2021/10/25 01:58:09;;;;;;;6.65;5.68;;;15.70;85.30;;;;;;4158320;28;20049;-61
2021/10/25 02:00:32;;;;;;;8.88;5.60;;;15.70;86.30;;;;;;4158188;28;20550;-62
2021/10/25 02:02:54;;;;;;;5.57;5.10;;;15.70;85.00;;;;;;4188602;28;20051;-62
2021/10/25 02:05:36;;;;;;;5.57;5.07;;;15.70;85.10;;;;;;4191006;28;20052;-62
2021/10/25 02:07:58;;;;;;;6.13;5.13;;;15.70;85.80;;;;;;4192281;28;20055;-62
2021/10/25 02:10:23;;;;;;;5.93;5.43;;;15.70;85.30;;;;;;4191291;28;20177;-62
2021/10/25 02:12:45;;;;;;;5.53;5.03;;;15.70;85.50;;;;;;4192388;28;20125;-62
2021/10/25 02:15:08;;;;;;;6.45;5.22;;;15.60;85.40;;;;;;4178016;28;20049;-61
2021/10/25 02:17:32;;;;;;;6.10;5.50;;;15.60;85.70;;;;;;4190858;28;20061;-62
2021/10/25 02:19:55;;;;;;;5.80;5.30;;;15.60;85.70;;;;;;4192316;28;20120;-62
2021/10/25 02:22:20;;;;;;;6.18;5.60;;;15.60;85.60;;;;;;4191188;28;20461;-61
2021/10/25 02:24:43;;;;;;;5.07;4.68;;;15.60;85.90;;;;;;4176626;28;20490;-61
2021/10/25 02:27:07;;;;;;;5.72;5.30;;;15.60;85.90;;;;;;4187741;28;20053;-62
2021/10/25 02:29:35;;;;;;;6.25;5.68;;;15.60;85.90;;;;;;4190303;28;20174;-61
2021/10/25 02:32:06;;;;;;;6.15;5.32;;;15.60;85.90;;;;;;4190621;28;20051;-62
2021/10/25 02:34:28;;;;;;;8.75;6.05;;;15.60;86.00;;;;;;4192068;28;20040;-62
2021/10/25 02:36:50;;;;;;;5.97;5.47;;;15.60;86.00;;;;;;4192004;28;20044;-62
2021/10/25 02:39:14;;;;;;;5.47;5.07;;;15.50;86.10;;;;;;4169589;28;20056;-63
2021/10/25 02:41:39;;;;;;;5.82;5.32;;;15.60;86.40;;;;;;4174318;28;20804;-61
2021/10/25 02:44:03;;;;;;;6.32;5.53;;;15.50;87.20;;;;;;4175155;28;20052;-62
2021/10/25 02:46:24;;;;;;;6.22;5.63;;;15.50;86.30;;;;;;4174474;28;20057;-62
2021/10/25 02:48:47;;;;;;;6.53;5.85;;;15.50;86.00;;;;;;4190247;28;20053;-61
2021/10/25 02:51:12;;;;;;;5.70;5.18;;;15.50;86.40;;;;;;4188762;28;20102;-62
2021/10/25 02:53:34;;;;;;;6.63;5.82;;;15.50;86.40;;;;;;4190411;28;20144;-61
2021/10/25 02:55:57;;;;;;;6.88;5.20;;;15.50;86.10;;;;;;4190275;28;20094;-63
2021/10/25 02:58:21;;;;;;;6.13;5.63;;;15.50;86.30;;;;;;4190404;28;20198;-62
2021/10/25 03:00:50;;;;;;;6.15;5.55;;;15.50;86.40;;;;;;4190496;28;20478;-62
2021/10/25 03:03:13;;;;;;;6.80;5.85;;;15.50;86.20;;;;;;4176288;28;20648;-63
2021/10/25 03:05:37;;;;;;;6.47;5.75;;;15.50;86.40;;;;;;4167725;28;20094;-62
2021/10/25 03:07:59;;;;;;;6.40;5.90;;;15.50;86.30;;;;;;4177973;28;20076;-61
2021/10/25 03:10:21;;;;;;;6.20;5.30;;;15.50;86.00;;;;;;4175024;28;20514;-61
2021/10/25 03:12:43;;;;;;;6.15;5.65;;;15.50;86.10;;;;;;4173510;28;20047;-61
2021/10/25 03:15:07;;;;;;;6.30;5.55;;;15.50;86.30;;;;;;4186407;28;20102;-61
2021/10/25 03:17:30;;;;;;;6.00;5.45;;;15.40;86.20;;;;;;4189550;28;20052;-62
2021/10/25 03:20:11;;;;;;;5.80;5.30;;;15.40;86.30;;;;;;4183614;28;20049;-62
2021/10/25 03:22:38;;;;;;;5.88;5.38;;;15.40;86.40;;;;;;4172785;28;20508;-63
2021/10/25 03:25:01;;;;;;;6.05;5.55;;;15.40;86.50;;;;;;4172750;28;20553;-61
2021/10/25 03:27:23;;;;;;;5.88;5.38;;;15.40;87.60;;;;;;4173852;28;20059;-63
2021/10/25 03:29:45;;;;;;;7.90;5.78;;;15.40;86.80;;;;;;4173201;28;20772;-62
2021/10/25 03:32:07;;;;;;;6.28;5.53;;;15.40;87.70;;;;;;4174928;28;20122;-59
2021/10/25 03:34:31;;;;;;;5.88;5.38;;;15.40;86.80;;;;;;4172894;28;20132;-62
2021/10/25 03:36:54;;;;;;;5.82;5.30;;;15.40;87.40;;;;;;4173293;28;20596;-62
2021/10/25 03:39:19;;;;;;;6.70;6.00;;;15.40;86.90;;;;;;4173225;28;20051;-61
2021/10/25 03:41:45;;;;;;;6.15;5.55;;;15.40;86.80;;;;;;4155737;28;20203;-60
2021/10/25 03:44:11;;;;;;;6.38;5.78;;;15.40;87.00;;;;;;4157970;28;20057;-63
2021/10/25 03:46:37;;;;;;;6.18;5.72;;;15.40;87.00;;;;;;4168428;28;20565;-61
2021/10/25 03:49:04;;;;;;;6.53;5.93;;;15.30;87.40;;;;;;4173523;28;20072;-61
2021/10/25 03:51:28;;;;;;;7.90;6.03;;;15.30;87.00;;;;;;4173237;28;20099;-65
2021/10/25 03:53:58;;;;;;;6.38;5.78;;;15.30;87.10;;;;;;4173178;28;20632;-62
2021/10/25 03:56:34;;;;;;;6.70;6.10;;;15.30;86.80;;;;;;4172476;28;20053;-62
2021/10/25 03:59:10;;;;;;;6.10;5.53;;;15.30;86.90;;;;;;4172936;28;20057;-62
2021/10/25 04:27:12;;;;;;;6.10;5.60;;;15.20;87.90;;;;;;4111496;28;20047;-62
2021/10/25 04:29:35;;;;;;;5.63;5.22;;;15.20;88.10;;;;;;4172832;28;20514;-62
2021/10/25 04:31:58;;;;;;;6.57;5.75;;;15.20;87.90;;;;;;4174255;28;20136;-62
2021/10/25 04:34:20;;;;;;;6.72;6.15;;;15.20;88.00;;;;;;4172868;28;20045;-62
2021/10/25 04:36:42;;;;;;;6.40;5.80;;;15.20;87.90;;;;;;4173887;28;20070;-62
2021/10/25 04:39:32;;;;;;;6.43;5.93;;;15.20;87.80;;;;;;4173699;28;20052;-61
2021/10/25 04:41:57;;;;;;;6.32;5.82;;;15.20;87.90;;;;;;4172998;28;20049;-61
2021/10/25 04:44:19;;;;;;;6.05;5.43;;;15.10;88.10;;;;;;4174025;28;20037;-61
2021/10/25 04:46:41;;;;;;;6.75;6.05;;;15.10;87.70;;;;;;4174946;28;20099;-62
2021/10/25 04:49:04;;;;;;;6.95;4.88;;;15.10;87.80;;;;;;4175472;28;20492;-61
2021/10/25 04:51:37;;;;;;;5.57;5.07;;;15.10;87.90;;;;;;4175402;28;20053;-62
2021/10/25 04:54:13;;;;;;;6.05;5.45;;;15.10;88.10;;;;;;4175332;28;20060;-62
2021/10/25 04:56:47;;;;;;;6.65;5.82;;;15.10;89.00;;;;;;4176332;28;20396;-61
2021/10/25 04:59:09;;;;;;;6.38;5.25;;;15.20;88.10;;;;;;4177218;28;20048;-62
2021/10/25 05:01:31;;;;;;;5.72;5.13;;;15.10;87.70;;;;;;4175235;28;20079;-59
2021/10/25 05:03:53;;;;;;;7.03;5.70;;;15.20;87.50;;;;;;4163421;28;20052;-62
2021/10/25 05:06:17;;;;;;;8.27;6.35;;;15.20;87.60;;;;;;4175410;28;20041;-61
2021/10/25 05:08:42;;;;;;;6.63;5.97;;;15.30;87.60;;;;;;4175513;28;20037;-61
2021/10/25 05:11:05;;;;;;;6.50;5.82;;;15.30;88.00;;;;;;4175415;28;20048;-62
2021/10/25 05:13:28;;;;;;;6.30;5.70;;;15.30;88.00;;;;;;4173394;28;20143;-61
2021/10/25 05:15:50;;;;;;;6.38;5.47;;;15.30;87.50;;;;;;4158741;28;20132;-62
2021/10/25 05:18:13;;;;;;;6.35;5.30;;;15.30;87.60;;;;;;4166497;28;20127;-61
2021/10/25 05:20:35;;;;;;;7.03;6.40;;;15.20;87.50;;;;;;4175106;28;20060;-61
2021/10/25 05:22:57;;;;;;;10.02;5.40;;;15.20;87.50;;;;;;4175095;28;20049;-61
2021/10/25 05:25:20;;;;;;;6.32;5.40;;;15.20;87.20;;;;;;4158796;28;20156;-61
2021/10/25 05:27:42;;;;;;;6.18;5.57;;;15.20;87.50;;;;;;4165579;28;20056;-62
2021/10/25 05:30:06;;;;;;;6.03;5.53;;;15.20;87.70;;;;;;4174999;28;20056;-63
2021/10/25 05:32:28;;;;;;;5.85;5.45;;;15.10;86.80;;;;;;4174630;28;20057;-63
2021/10/25 05:34:52;;;;;;;5.82;5.40;;;15.10;88.30;;;;;;4173452;28;20052;-61
2021/10/25 05:37:14;;;;;;;6.10;5.18;;;15.10;87.60;;;;;;4174813;28;20044;-62
2021/10/25 05:39:37;;;;;;;6.15;5.63;;;15.10;87.10;;;;;;4174789;28;20053;-62
2021/10/25 05:42:01;;;;;;;5.40;5.00;;;15.10;87.00;;;;;;4174759;28;20061;-63
2021/10/25 05:44:24;;;;;;;5.47;5.07;;;15.10;87.10;;;;;;4175728;28;20057;-61
2021/10/25 05:46:48;;;;;;;7.00;6.30;;;15.10;87.20;;;;;;4174755;28;20037;-62
2021/10/25 05:49:10;;;;;;;5.80;5.30;;;15.10;87.50;;;;;;4176275;28;20492;-63
2021/10/25 05:51:32;;;;;;;6.45;5.65;;;15.10;87.30;;;;;;4175127;28;20506;-62
2021/10/25 05:53:57;;;;;;;6.90;5.72;;;15.00;87.20;;;;;;4174981;28;20049;-62
2021/10/25 05:56:21;;;;;;;5.75;5.25;;;15.00;87.20;;;;;;4173793;28;20122;-62
2021/10/25 05:58:44;;;;;;;7.15;5.78;;;15.00;87.20;;;;;;4174231;28;20075;-62
2021/10/25 06:01:11;;;;;;;6.30;5.80;;;15.00;87.40;;;;;;4175168;28;20519;-62
2021/10/25 06:03:49;;;;;;;5.88;5.38;;;15.00;87.60;;;;;;4174345;28;20045;-62
2021/10/25 06:06:11;;;;;;;5.90;5.40;;;15.00;88.20;;;;;;4174047;28;20071;-62
2021/10/25 06:08:33;;;;;;;6.13;5.57;;;15.10;88.40;;;;;;4174341;28;20103;-63
2021/10/25 06:10:56;;;;;;;5.75;5.25;;;15.30;88.60;;;;;;4174118;28;20052;-62
2021/10/25 06:13:24;;;;;;;6.22;5.63;;;15.40;89.10;;;;;;4174516;28;20118;-62
2021/10/25 06:15:57;;;;;;;5.57;5.10;;;15.50;87.60;;;;;;4174414;28;20048;-63
2021/10/25 06:18:20;;;;;;;5.55;5.15;;;15.60;87.30;;;;;;4173699;28;20482;-63
2021/10/25 06:20:44;;;;;;;6.15;5.38;;;15.70;87.00;;;;;;4175451;28;20423;-62
2021/10/25 06:23:15;;;;;;;5.75;5.25;;;15.70;86.60;;;;;;4174198;28;20068;-62
2021/10/25 06:25:39;;;;;;;6.40;5.63;;;15.70;86.40;;;;;;4174494;28;20064;-62
2021/10/25 06:28:09;;;;;;;6.47;5.50;;;15.80;86.40;;;;;;4173725;28;20041;-62
2021/10/25 06:30:35;;;;;;;5.85;5.35;;;15.80;86.30;;;;;;4174099;28;20504;-62
2021/10/25 06:32:58;;;;;;;6.05;5.55;;;15.80;86.40;;;;;;4174199;28;20057;-62
2021/10/25 06:35:40;;;;;;;5.57;5.18;;;15.80;86.20;;;;;;4174762;28;20056;-62
2021/10/25 06:38:24;;;;;;;5.60;5.20;;;15.80;86.40;;;;;;4174936;28;20171;-63
2021/10/25 06:40:49;;;;;;;6.53;5.93;;;15.70;86.30;;;;;;4174353;28;20136;-63
2021/10/25 06:43:11;;;;;;;4.97;4.57;;;15.70;86.20;;;;;;4174093;28;20053;-62
2021/10/25 06:45:38;;;;;;;7.88;5.30;;;15.70;86.20;;;;;;4173976;28;20048;-62
2021/10/25 06:48:00;;;;;;;5.18;4.80;;;15.70;86.30;;;;;;4173582;28;20488;-62
2021/10/25 06:50:25;;;;;;;6.10;5.53;;;15.60;86.30;;;;;;4173877;28;20057;-62
2021/10/25 06:52:48;;;;;;;6.13;5.60;;;15.60;86.30;;;;;;4173880;28;20072;-62
2021/10/25 06:55:12;;;;;;;6.65;5.20;;;15.60;86.30;;;;;;4173633;28;20064;-62
2021/10/25 06:57:39;;;;;;;5.72;5.20;;;15.60;86.30;;;;;;4173343;28;20131;-62
2021/10/25 07:00:06;;;;;;;5.07;4.75;;;15.60;86.20;;;;;;4173867;28;20078;-62
2021/10/25 07:02:29;;;;;;;6.45;5.85;;;15.50;86.30;;;;;;4173916;28;20171;-62
2021/10/25 07:04:59;;;;;;;6.32;5.80;;;15.50;86.30;;;;;;4172920;28;20555;-61
2021/10/25 07:07:25;;;;;;;5.50;5.10;;;15.40;86.20;;;;;;4172427;28;20045;-62
2021/10/25 07:09:47;;;;;;;6.82;6.00;;;15.50;87.30;;;;;;4156228;28;20053;-62
2021/10/25 07:12:11;;;;;;;5.40;5.00;;;15.60;87.40;;;;;;4157276;28;20153;-62
2021/10/25 07:14:36;;;;;;;9.25;5.60;;;15.80;86.90;;;;;;4160067;28;20424;-62
2021/10/25 07:17:11;;;;;;;5.63;4.72;;;15.80;87.30;;;;;;4173053;28;20063;-61
2021/10/25 07:19:49;;;;;;;6.43;5.13;;;15.90;86.00;;;;;;4173146;28;20041;-62
2021/10/25 07:22:46;;;;;;;5.43;5.05;;;15.90;85.70;;;;;;4173052;28;20491;-62
2021/10/25 07:59:17;;;;;;;5.47;5.07;;;16.00;85.50;;;;;;4177331;28;20052;-62
2021/10/25 08:06:54;;;;;;;6.93;5.40;;;15.70;86.80;;;;;;4156630;28;20061;-60
2021/10/25 08:09:38;;;;;;;5.88;5.20;;;15.70;86.80;;;;;;4156524;28;20069;-60
2021/10/25 08:12:07;;;;;;;5.38;4.95;;;15.70;86.80;;;;;;4156351;28;20516;-60
2021/10/25 08:14:34;;;;;;;5.93;5.43;;;15.70;87.70;;;;;;4170844;28;20487;-60
2021/10/25 08:16:58;;;;;;;6.65;4.93;;;15.70;86.80;;;;;;4156028;28;20755;-60
2021/10/25 08:19:24;;;;;;;5.55;5.05;;;15.60;86.90;;;;;;4156598;28;20046;-60
2021/10/25 08:21:47;;;;;;;5.57;5.07;;;15.60;86.90;;;;;;4159191;28;20049;-60
2021/10/25 08:24:09;;;;;;;7.15;4.63;;;15.50;86.90;;;;;;4188898;28;20068;-60
2021/10/25 08:26:54;;;;;;;5.97;5.47;;;15.60;87.20;;;;;;4177354;28;20057;-61
2021/10/25 08:29:16;;;;;;;5.68;5.18;;;15.50;87.40;;;;;;4189974;28;20135;-60
2021/10/25 08:31:40;;;;;;;6.70;5.45;;;15.50;87.40;;;;;;4176327;28;20049;-61
2021/10/25 08:39:48;;;;;;;5.82;5.22;;;15.40;88.10;;;;;;4192493;28;20778;-60
2021/10/25 08:42:15;;;;;;;6.50;5.30;;;15.30;88.20;;;;;;4192201;28;20461;-60
2021/10/25 08:44:39;;;;;;;6.95;5.45;;;15.30;88.40;;;;;;4192404;28;20058;-60
2021/10/25 08:47:02;;;;;;;5.30;4.80;;;15.30;88.50;;;;;;4191278;28;20045;-60
2021/10/25 08:49:27;;;;;;;6.22;5.55;;;15.30;88.60;;;;;;4192022;28;20100;-60
2021/10/25 08:51:50;;;;;;;5.80;5.25;;;15.30;88.40;;;;;;4192303;28;20088;-60
2021/10/25 08:54:16;;;;;;;5.70;5.20;;;15.20;89.30;;;;;;4190147;28;20060;-60
2021/10/25 08:56:40;;;;;;;7.30;5.18;;;15.20;88.80;;;;;;4192234;28;20048;-60
2021/10/25 08:59:06;;;;;;;6.15;5.55;;;15.20;88.80;;;;;;4192171;28;20071;-60
2021/10/25 09:01:33;;;;;;;4.97;4.57;;;15.20;88.80;;;;;;4179054;28;20068;-60
2021/10/25 09:04:07;;;;;;;5.97;5.25;;;15.20;88.80;;;;;;4175729;28;20049;-60
2021/10/25 09:06:32;;;;;;;5.53;5.03;;;15.20;89.30;;;;;;4175448;28;20511;-61
2021/10/25 09:08:59;;;;;;;6.35;5.32;;;15.20;89.30;;;;;;4158590;28;20050;-60
2021/10/25 09:11:22;;;;;;;6.95;5.10;;;15.20;89.20;;;;;;4158625;28;20095;-60
2021/10/25 09:13:57;;;;;;;6.05;5.55;;;15.20;89.40;;;;;;4169139;28;20052;-60
2021/10/25 09:16:20;;;;;;;5.15;4.75;;;15.10;89.30;;;;;;4173935;28;20057;-60
2021/10/25 09:18:42;;;;;;;6.15;5.55;;;15.20;89.40;;;;;;4180275;28;20818;-59
2021/10/25 09:21:10;;;;;;;5.35;4.95;;;15.20;89.40;;;;;;4174202;28;20103;-59
2021/10/25 09:23:40;;;;;;;5.90;5.43;;;15.30;89.90;;;;;;4166971;28;20052;-60
2021/10/25 09:26:08;;;;;;;5.70;4.97;;;15.50;89.90;;;;;;4175198;28;20131;-59
2021/10/25 09:28:35;;;;;;;5.57;5.00;;;15.80;89.10;;;;;;4174960;28;20136;-59
2021/10/25 09:31:09;;;;;;;7.78;5.28;;;16.10;87.90;;;;;;4174783;28;20434;-59
2021/10/25 09:33:36;;;;;;;5.47;4.97;;;16.50;86.50;;;;;;4174314;28;20056;-59
2021/10/25 09:36:07;;;;;;;5.57;5.07;;;16.80;84.70;;;;;;4175124;28;20057;-61
2021/10/25 09:38:50;;;;;;;4.95;4.53;;;17.30;83.20;;;;;;4174564;28;20056;-60
2021/10/25 09:50:11;;;;;;;4.40;4.10;;;18.30;77.70;;;;;;4124357;28;20101;-60
2021/10/25 09:52:37;;;;;;;4.43;4.13;;;18.40;77.40;;;;;;4110743;28;20418;-59
2021/10/25 09:55:07;;;;;;;5.03;4.63;;;18.40;77.30;;;;;;4156919;28;20127;-59
2021/10/25 09:57:42;;;;;;;4.78;4.47;;;18.30;77.40;;;;;;4174657;28;20107;-58
2021/10/25 10:00:24;;;;;;;4.57;4.18;;;18.20;77.70;;;;;;4175435;28;20056;-59
2021/10/25 10:02:49;;;;;;;6.60;4.65;;;18.10;78.20;;;;;;4174416;28;20411;-60
2021/10/25 10:05:22;;;;;;;4.97;4.43;;;18.10;78.50;;;;;;4157802;28;20139;-59
2021/10/25 10:07:47;;;;;;;4.93;4.63;;;18.10;79.00;;;;;;4167925;28;20053;-59
2021/10/25 10:10:31;;;;;;;4.90;4.50;;;18.20;78.60;;;;;;4173796;28;20071;-60
2021/10/25 10:12:57;;;;;;;5.00;4.60;;;18.30;78.10;;;;;;4162376;28;20138;-59
2021/10/25 10:15:28;;;;;;;5.55;5.13;;;18.30;78.00;;;;;;4174110;28;20044;-60
2021/10/25 10:17:56;;;;;;;4.78;4.30;;;18.30;77.80;;;;;;4174026;28;20096;-60
2021/10/25 10:20:22;;;;;;;5.20;4.50;;;18.30;78.00;;;;;;4174546;28;20128;-59
2021/10/25 10:22:51;;;;;;;4.38;4.07;;;18.20;78.20;;;;;;4173845;28;20500;-59
2021/10/25 10:25:27;;;;;;;4.70;4.40;;;18.10;78.60;;;;;;4172582;28;20053;-60
2021/10/25 10:28:00;;;;;;;5.07;4.18;;;18.00;79.00;;;;;;4185215;28;20056;-60
2021/10/25 10:30:21;;;;;;;;;;;18.00;79.50;;;;;;4171812;28;20160;-62
2021/10/25 10:33:00;;;;;;;5.38;4.97;;;18.00;79.70;;;;;;4171982;28;19928;-62
2021/10/25 10:35:25;;;;;;;5.20;4.60;;;18.00;79.50;;;;;;4173271;28;20052;-61
2021/10/25 10:38:00;;;;;;;4.70;4.30;;;18.00;79.50;;;;;;4172656;28;20130;-61
2021/10/25 10:40:37;;;;;;;5.43;4.60;;;18.00;79.50;;;;;;4168347;28;20141;-61
2021/10/25 10:43:26;;;;;;;5.65;4.68;;;17.90;79.70;;;;;;4174766;28;20052;-60
2021/10/25 10:46:01;;;;;;;4.75;4.45;;;17.80;80.20;;;;;;4173816;28;20140;-59
2021/10/25 10:48:26;;;;;;;4.68;4.28;;;17.70;80.60;;;;;;4182298;28;20048;-61
2021/10/25 10:50:56;;;;;;;5.20;4.80;;;17.60;81.00;;;;;;4158895;28;20046;-60
2021/10/25 10:53:25;;;;;;;5.13;4.68;;;17.60;81.40;;;;;;4158226;28;20072;-60
2021/10/25 10:55:51;;;;;;;5.60;5.10;;;17.50;81.80;;;;;;4173852;28;20072;-59
2021/10/25 11:01:01;;;;;;;8.00;5.60;;;17.30;82.70;;;;;;4158362;28;20053;-60
2021/10/25 11:03:25;;;;;;;5.90;4.57;;;17.30;83.00;;;;;;4158693;28;20107;-60
2021/10/25 11:05:51;;;;;;;5.88;5.35;;;17.20;83.40;;;;;;4173534;28;20045;-60
2021/10/25 11:08:20;;;;;;;6.28;5.63;;;17.10;83.70;;;;;;4173121;28;20049;-59
2021/10/25 11:10:47;;;;;;;6.20;5.57;;;17.10;84.10;;;;;;4174822;28;20055;-60
2021/10/25 11:13:14;;;;;;;5.22;4.80;;;17.00;84.40;;;;;;4175030;28;20128;-60
2021/10/25 11:15:40;;;;;;;5.95;5.40;;;16.90;84.60;;;;;;4174732;28;20151;-60
2021/10/25 11:18:05;;;;;;;6.45;5.03;;;16.90;85.70;;;;;;4174759;28;20044;-59
2021/10/25 11:20:28;;;;;;;6.78;5.20;;;16.90;85.10;;;;;;4174324;28;20048;-60
2021/10/25 11:22:50;;;;;;;6.10;5.30;;;17.00;84.90;;;;;;4174442;28;20139;-59
2021/10/25 11:25:12;;;;;;;5.47;4.95;;;17.20;84.50;;;;;;4173298;28;20558;-60
2021/10/25 11:27:38;;;;;;;6.40;4.53;;;17.30;83.90;;;;;;4158355;28;20142;-60
2021/10/25 11:30:13;;;;;;;5.70;5.18;;;17.40;83.30;;;;;;4173658;28;20063;-60
2021/10/25 11:32:35;;;;;;;6.03;5.18;;;17.50;82.90;;;;;;4174869;28;20487;-60
2021/10/25 11:35:00;;;;;;;5.07;4.68;;;17.50;82.70;;;;;;4174790;28;20053;-61
2021/10/25 11:37:23;;;;;;;5.53;5.03;;;17.50;82.70;;;;;;4174620;28;20410;-60
2021/10/25 11:39:49;;;;;;;5.15;4.63;;;17.50;83.70;;;;;;4174274;28;20053;-60
2021/10/25 11:42:13;;;;;;;4.85;4.47;;;17.50;82.90;;;;;;4174219;28;20419;-60
2021/10/25 11:44:36;;;;;;;4.75;4.28;;;17.40;83.20;;;;;;4158196;28;20490;-60
2021/10/25 11:46:57;;;;;;;4.63;4.32;;;17.30;83.50;;;;;;4158227;28;20045;-61
2021/10/25 11:49:24;;;;;;;4.78;4.38;;;17.40;83.60;;;;;;4168685;28;20080;-59
2021/10/25 11:51:52;;;;;;;4.38;4.07;;;17.50;83.30;;;;;;4174588;28;20127;-60
2021/10/25 11:54:14;;;;;;;5.30;3.90;;;17.60;83.10;;;;;;4173782;28;20076;-59
2021/10/25 11:56:36;;;;;;;4.55;4.25;;;17.50;83.60;;;;;;4177602;28;20060;-60
2021/10/25 11:58:58;;;;;;;3.97;3.70;;;17.60;83.00;;;;;;4177033;28;20037;-60
2021/10/25 12:01:21;;;;;;;4.13;3.83;;;17.60;83.10;;;;;;4167508;28;20060;-60
2021/10/25 12:03:54;;;;;;;4.68;4.28;;;17.60;83.10;;;;;;4176159;28;20482;-60
2021/10/25 12:06:18;;;;;;;4.80;4.38;;;17.60;83.00;;;;;;4176248;28;20049;-60
2021/10/25 12:08:53;;;;;;;4.50;4.10;;;17.70;83.00;;;;;;4177736;28;20333;-60
2021/10/25 12:11:24;;;;;;;4.28;3.97;;;17.60;83.00;;;;;;4177325;28;20048;-59
2021/10/25 12:13:47;;;;;;;4.53;4.22;;;17.60;83.30;;;;;;4177575;28;20060;-60
2021/10/25 12:16:14;;;;;;;5.18;4.75;;;17.50;83.50;;;;;;4177258;28;20052;-61
2021/10/25 12:18:36;;;;;;;4.50;4.07;;;17.50;83.80;;;;;;4177147;28;20088;-60
2021/10/25 12:21:09;;;;;;;5.57;4.22;;;17.40;83.90;;;;;;4177517;28;20076;-59
2021/10/25 12:23:31;;;;;;;5.28;4.78;;;17.30;84.10;;;;;;4177302;28;20106;-60
2021/10/25 12:25:58;;;;;;;5.00;4.50;;;17.30;84.50;;;;;;4177264;28;20041;-60
2021/10/25 12:28:21;;;;;;;4.38;3.97;;;17.20;84.80;;;;;;4177380;28;20076;-60
2021/10/25 12:30:45;;;;;;;4.47;4.13;;;17.20;85.20;;;;;;4177242;28;20040;-59
2021/10/25 12:33:09;;;;;;;4.45;4.15;;;17.20;85.60;;;;;;4177185;28;20052;-61
2021/10/25 12:35:38;;;;;;;4.57;4.28;;;17.20;85.50;;;;;;4177159;28;20124;-61
2021/10/25 12:38:01;;;;;;;4.32;4.03;;;17.40;85.10;;;;;;4176872;28;20057;-60
2021/10/25 12:40:23;;;;;;;4.55;4.15;;;17.50;84.80;;;;;;4176048;28;20045;-60
2021/10/25 12:42:47;;;;;;;5.15;4.72;;;17.50;84.50;;;;;;4177113;28;20049;-59
2021/10/25 12:45:17;;;;;;;5.07;4.68;;;17.50;84.20;;;;;;4177084;28;20064;-59
2021/10/25 12:47:39;;;;;;;4.88;4.47;;;17.50;84.20;;;;;;4160615;28;20053;-60
2021/10/25 12:50:02;;;;;;;5.40;5.00;;;17.50;84.30;;;;;;4168810;28;20495;-60
2021/10/25 12:52:28;;;;;;;5.22;4.93;;;17.40;84.40;;;;;;4177150;28;20048;-60
2021/10/25 12:54:51;;;;;;;5.25;4.75;;;17.40;84.40;;;;;;4177127;28;20141;-60
2021/10/25 12:57:18;;;;;;;4.95;4.55;;;17.30;84.60;;;;;;4176650;28;20056;-60
2021/10/25 12:59:43;;;;;;;5.75;5.15;;;17.30;84.90;;;;;;4176551;28;20567;-61
2021/10/25 13:02:09;;;;;;;5.90;5.45;;;17.20;85.10;;;;;;4168863;28;20098;-60
2021/10/25 13:04:34;;;;;;;6.93;6.13;;;17.20;85.40;;;;;;4176581;28;20128;-60
2021/10/25 13:06:56;;;;;;;6.10;5.57;;;17.10;85.60;;;;;;4175638;28;20495;-61
2021/10/25 13:09:18;;;;;;;6.97;6.28;;;17.10;86.80;;;;;;4176852;28;20136;-61
2021/10/25 13:11:42;;;;;;;6.80;6.15;;;17.00;86.00;;;;;;4176957;28;20049;-61
2021/10/25 13:14:08;;;;;;;6.68;6.07;;;16.90;87.00;;;;;;4176903;28;20122;-61
2021/10/25 13:16:37;;;;;;;6.50;5.90;;;16.90;86.40;;;;;;4176544;28;20060;-62
2021/10/25 13:18:59;;;;;;;6.35;5.75;;;16.90;86.60;;;;;;4176907;28;20509;-60
2021/10/25 13:21:22;;;;;;;7.38;6.68;;;16.80;86.80;;;;;;4176589;28;20088;-59
2021/10/25 13:23:45;;;;;;;8.18;7.38;;;16.80;87.00;;;;;;4176689;28;20091;-60
2021/10/25 13:26:08;;;;;;;8.38;6.38;;;16.80;87.10;;;;;;4176295;28;20518;-59
2021/10/25 13:28:30;;;;;;;7.88;7.07;;;16.80;87.50;;;;;;4176598;28;20049;-61
2021/10/25 13:30:52;;;;;;;7.53;6.72;;;16.70;87.60;;;;;;4176266;28;20053;-60
2021/10/25 13:33:15;;;;;;;7.75;6.93;;;16.60;87.70;;;;;;4176624;28;20098;-61
2021/10/25 13:35:38;;;;;;;8.02;6.90;;;16.60;87.80;;;;;;4176453;28;20061;-61
2021/10/25 13:38:00;;;;;;;8.93;7.75;;;16.60;88.00;;;;;;4176085;28;20059;-60
2021/10/25 13:40:23;;;;;;;8.13;7.32;;;16.60;88.20;;;;;;4176569;28;20104;-60
2021/10/25 13:42:46;;;;;;;8.10;6.88;;;16.60;88.40;;;;;;4176516;28;20055;-60
2021/10/25 13:45:08;;;;;;;7.80;7.10;;;16.70;88.20;;;;;;4175738;28;20145;-60
2021/10/25 13:47:31;;;;;;;10.38;7.03;;;16.80;87.80;;;;;;4176582;28;20057;-61
2021/10/25 13:49:55;;;;;;;7.28;6.53;;;16.90;87.40;;;;;;4176388;28;20045;-61
2021/10/25 13:52:17;;;;;;;8.70;7.68;;;17.00;87.10;;;;;;4175901;28;20152;-60
2021/10/25 13:54:40;;;;;;;8.05;7.07;;;17.00;86.90;;;;;;4175990;28;20045;-61
2021/10/25 13:57:06;;;;;;;8.65;6.75;;;17.10;86.80;;;;;;4175974;28;20045;-61
2021/10/25 13:59:28;;;;;;;8.30;7.38;;;17.10;86.40;;;;;;4175665;28;20040;-60
2021/10/25 14:01:52;;;;;;;8.20;7.40;;;17.10;86.30;;;;;;4175970;28;20098;-60